createdAt,value
2022-09-16T00:00:57.409Z,0.93
2022-09-16T00:03:25.429Z,1.00
2022-09-16T00:05:54.422Z,1.05
2022-09-16T00:08:23.395Z,1.05
2022-09-16T00:10:52.140Z,2.25
2022-09-16T00:13:20.718Z,1.42
2022-09-16T00:15:51.830Z,1.20
2022-09-16T00:18:21.385Z,1.00
2022-09-16T00:20:51.516Z,1.10
2022-09-16T00:23:20.156Z,1.30
2022-09-16T00:25:52.385Z,1.40
2022-09-16T00:28:21.550Z,1.33
2022-09-16T00:30:49.973Z,1.08
2022-09-16T00:33:19.288Z,1.20
2022-09-16T00:35:48.926Z,0.98
2022-09-16T00:38:17.054Z,1.15
2022-09-16T00:40:46.363Z,2.20
2022-09-16T00:43:15.273Z,1.30
2022-09-16T00:45:47.692Z,2.33
2022-09-16T00:48:20.019Z,1.02
2022-09-16T00:50:52.718Z,1.30
2022-09-16T00:53:23.315Z,0.80
2022-09-16T00:55:52.417Z,1.25
2022-09-16T00:58:28.777Z,0.82
2022-09-16T01:00:57.047Z,1.23
2022-09-16T01:03:26.050Z,1.17
2022-09-16T01:05:55.265Z,0.93
2022-09-16T01:08:23.018Z,1.13
2022-09-16T01:10:50.886Z,0.88
2022-09-16T01:13:19.063Z,1.70
2022-09-16T01:15:53.658Z,0.90
2022-09-16T01:18:27.878Z,1.48
2022-09-16T01:21:17.949Z,0.77
2022-09-16T01:24:23.631Z,0.95
2022-09-16T01:27:31.449Z,1.40
2022-09-16T01:30:21.204Z,1.45
2022-09-16T01:33:04.871Z,0.90
2022-09-16T01:35:45.310Z,0.90
2022-09-16T01:38:27.407Z,1.00
2022-09-16T01:41:04.319Z,1.38
2022-09-16T01:43:44.352Z,1.20
2022-09-16T01:46:19.319Z,1.40
2022-09-16T01:48:56.666Z,0.93
2022-09-16T01:51:31.760Z,1.02
2022-09-16T01:54:07.032Z,0.90
2022-09-16T01:56:42.896Z,1.00
2022-09-16T01:59:14.233Z,1.40
2022-09-16T02:01:48.880Z,1.05
2022-09-16T02:04:23.294Z,0.90
2022-09-16T02:06:53.938Z,1.00
2022-09-16T02:09:26.409Z,0.98
2022-09-16T02:11:57.672Z,1.20
2022-09-16T02:14:28.893Z,1.25
2022-09-16T02:17:00.494Z,1.58
2022-09-16T02:19:34.983Z,1.00
2022-09-16T02:22:09.099Z,1.15
2022-09-16T02:24:41.153Z,0.85
2022-09-16T02:27:15.063Z,1.00
2022-09-16T02:29:49.676Z,1.30
2022-09-16T02:32:20.637Z,1.33
2022-09-16T02:34:52.267Z,0.95
2022-09-16T02:37:24.810Z,1.00
2022-09-16T02:39:56.583Z,1.27
2022-09-16T02:42:24.778Z,1.05
2022-09-16T02:44:53.168Z,1.15
2022-09-16T02:47:30.338Z,0.80
2022-09-16T02:50:07.904Z,1.27
2022-09-16T02:52:40.921Z,2.30
2022-09-16T02:55:15.136Z,1.17
2022-09-16T02:57:43.208Z,1.15
2022-09-16T03:00:11.917Z,0.90
2022-09-16T03:02:40.182Z,1.13
2022-09-16T03:05:10.496Z,1.75
2022-09-16T03:07:40.631Z,0.93
2022-09-16T03:10:11.082Z,1.20
2022-09-16T03:12:53.903Z,1.27
2022-09-16T03:15:59.470Z,1.92
2022-09-16T03:18:50.249Z,1.40
2022-09-16T03:21:29.078Z,1.13
2022-09-16T03:24:06.381Z,1.50
2022-09-16T03:26:42.146Z,2.15
2022-09-16T03:29:19.831Z,1.00
2022-09-16T03:31:53.246Z,1.52
2022-09-16T03:34:24.969Z,1.10
2022-09-16T03:37:04.989Z,1.08
2022-09-16T03:39:33.701Z,1.50
2022-09-16T03:42:02.263Z,1.15
2022-09-16T03:44:34.553Z,2.55
2022-09-16T03:47:02.938Z,1.35
2022-09-16T03:49:31.086Z,1.40
2022-09-16T03:52:01.216Z,1.15
2022-09-16T03:54:29.086Z,1.50
2022-09-16T03:56:56.904Z,1.30
2022-09-16T03:59:24.758Z,1.00
2022-09-16T04:01:52.656Z,1.88
2022-09-16T04:04:20.514Z,1.00
2022-09-16T04:06:48.322Z,1.08
2022-09-16T04:09:17.502Z,0.93
2022-09-16T04:11:45.393Z,1.50
2022-09-16T04:14:13.290Z,1.10
2022-09-16T04:16:44.953Z,0.90
2022-09-16T04:19:14.295Z,1.40
2022-09-16T04:21:42.840Z,1.40
2022-09-16T04:24:13.207Z,1.35
2022-09-16T04:26:43.184Z,1.65
2022-09-16T04:29:10.999Z,1.45
2022-09-16T04:31:38.854Z,1.65
2022-09-16T04:34:06.728Z,2.65
2022-09-16T04:36:34.520Z,1.45
2022-09-16T04:39:02.314Z,1.25
2022-09-16T04:41:30.146Z,1.33
2022-09-16T04:44:00.945Z,1.33
2022-09-16T04:46:30.870Z,1.33
2022-09-16T04:48:59.594Z,1.02
2022-09-16T04:51:28.253Z,1.35
2022-09-16T04:53:57.079Z,1.73
2022-09-16T04:56:27.535Z,1.80
2022-09-16T04:58:57.400Z,1.52
2022-09-16T05:01:28.810Z,1.38
2022-09-16T05:04:00.293Z,1.42
2022-09-16T05:06:33.052Z,1.70
2022-09-16T05:09:01.327Z,1.45
2022-09-16T05:11:31.098Z,1.73
2022-09-16T05:14:00.236Z,1.80
2022-09-16T05:16:29.804Z,1.92
2022-09-16T05:18:59.800Z,2.20
2022-09-16T05:21:29.686Z,1.40
2022-09-16T05:24:02.270Z,1.38
2022-09-16T05:26:32.374Z,1.27
2022-09-16T05:29:02.230Z,1.33
2022-09-16T05:31:33.992Z,1.48
2022-09-16T05:34:04.882Z,1.85
2022-09-16T05:36:34.806Z,1.25
2022-09-16T05:41:51.421Z,1.80
2022-09-16T05:44:19.289Z,1.17
2022-09-16T05:46:48.492Z,1.30
2022-09-16T05:49:20.410Z,1.40
2022-09-16T05:51:49.464Z,1.33
2022-09-16T05:54:18.494Z,1.40
2022-09-16T05:56:47.282Z,1.35
2022-09-16T05:59:16.342Z,1.40
2022-09-16T06:01:45.066Z,1.52
2022-09-16T06:04:16.524Z,1.50
2022-09-16T06:06:45.530Z,1.48
2022-09-16T06:09:16.010Z,1.30
2022-09-16T06:11:45.793Z,1.20
2022-09-16T06:14:14.786Z,1.50
2022-09-16T06:16:42.879Z,2.08
2022-09-16T06:19:13.515Z,1.83
2022-09-16T06:21:43.638Z,1.42
2022-09-16T06:24:12.202Z,1.42
2022-09-16T06:26:41.562Z,0.70
2022-09-16T06:29:10.411Z,1.38
2022-09-16T06:31:39.186Z,1.30
2022-09-16T06:34:08.087Z,1.20
2022-09-16T06:36:42.757Z,1.58
2022-09-16T06:39:14.257Z,1.63
2022-09-16T06:41:42.140Z,1.83
2022-09-16T06:44:10.190Z,1.23
2022-09-16T06:46:38.723Z,1.40
2022-09-16T06:49:06.916Z,1.23
2022-09-16T06:51:35.658Z,1.70
2022-09-16T06:54:05.795Z,1.45
2022-09-16T06:56:39.046Z,1.30
2022-09-16T06:59:07.190Z,1.27
2022-09-16T07:01:35.620Z,1.02
2022-09-16T07:04:05.403Z,1.10
2022-09-16T07:09:22.243Z,1.83
2022-09-16T07:11:51.377Z,1.17
2022-09-16T07:14:19.233Z,1.35
2022-09-16T07:16:47.128Z,1.10
2022-09-16T07:19:15.084Z,1.42
2022-09-16T07:21:42.838Z,1.40
2022-09-16T07:24:13.186Z,1.13
2022-09-16T07:26:42.501Z,1.50
2022-09-16T07:29:13.696Z,1.40
2022-09-16T07:31:42.222Z,1.50
2022-09-16T07:34:11.940Z,1.02
2022-09-16T07:36:41.777Z,1.33
2022-09-16T07:39:10.407Z,0.93
2022-09-16T07:41:39.811Z,1.02
2022-09-16T07:44:10.825Z,1.00
2022-09-16T07:46:40.331Z,1.00
2022-09-16T07:49:09.583Z,1.23
2022-09-16T07:51:37.520Z,1.70
2022-09-16T07:54:08.010Z,1.05
2022-09-16T07:56:37.547Z,1.33
2022-09-16T07:59:07.652Z,1.00
2022-09-16T08:01:37.923Z,1.13
2022-09-16T08:04:10.539Z,1.35
2022-09-16T08:06:39.828Z,0.95
2022-09-16T08:09:15.633Z,1.58
2022-09-16T08:11:55.744Z,1.20
2022-09-16T08:14:23.573Z,1.45
2022-09-16T08:16:51.801Z,1.00
2022-09-16T08:19:22.560Z,1.17
2022-09-16T08:21:50.570Z,1.20
2022-09-16T08:24:18.401Z,0.88
2022-09-16T08:26:46.347Z,1.40
2022-09-16T08:29:14.369Z,1.50
2022-09-16T08:31:42.423Z,1.23
2022-09-16T08:34:10.299Z,1.15
2022-09-16T08:36:39.454Z,2.33
2022-09-16T08:39:07.273Z,1.42
2022-09-16T08:41:55.837Z,1.13
2022-09-16T08:44:33.065Z,0.90
2022-09-16T08:47:03.186Z,1.40
2022-09-16T08:49:35.054Z,1.52
2022-09-16T08:52:11.251Z,1.17
2022-09-16T08:54:43.362Z,1.17
2022-09-16T08:57:16.591Z,1.55
2022-09-16T08:59:50.475Z,1.50
2022-09-16T09:02:26.965Z,1.55
2022-09-16T09:04:55.271Z,1.40
2022-09-16T09:07:33.217Z,1.65
2022-09-16T09:10:11.017Z,1.08
2022-09-16T09:12:42.685Z,1.55
2022-09-16T09:15:34.299Z,1.02
2022-09-16T09:18:17.911Z,3.55
2022-09-16T09:20:54.240Z,2.63
2022-09-16T09:23:43.621Z,1.02
2022-09-16T09:26:21.141Z,0.88
2022-09-16T09:29:28.852Z,1.75
2022-09-16T09:32:04.522Z,1.60
2022-09-16T09:34:46.287Z,1.30
2022-09-16T09:37:30.377Z,1.02
2022-09-16T09:40:10.812Z,1.25
2022-09-16T09:42:43.954Z,0.90
2022-09-16T09:45:20.455Z,0.95
2022-09-16T09:47:52.272Z,1.45
2022-09-16T09:50:23.794Z,1.02
2022-09-16T09:53:02.402Z,1.33
2022-09-16T09:55:34.118Z,1.50
2022-09-16T09:58:18.748Z,1.25
2022-09-16T10:00:46.655Z,1.92
2022-09-16T10:03:17.147Z,1.05
2022-09-16T10:05:46.102Z,1.00
2022-09-16T10:08:19.747Z,1.25
2022-09-16T10:10:52.424Z,1.10
2022-09-16T10:13:21.420Z,2.53
2022-09-16T10:15:53.354Z,1.30
2022-09-16T10:18:29.619Z,1.75
2022-09-16T10:21:03.010Z,1.10
2022-09-16T10:23:30.861Z,1.20
2022-09-16T10:26:16.140Z,1.27
2022-09-16T10:28:55.270Z,1.83
2022-09-16T10:31:24.170Z,1.50
2022-09-16T10:33:52.395Z,1.17
2022-09-16T10:36:22.061Z,2.03
2022-09-16T10:38:53.205Z,1.88
2022-09-16T10:41:24.405Z,1.77
2022-09-16T10:43:54.344Z,1.30
2022-09-16T10:46:22.559Z,1.00
2022-09-16T10:48:54.184Z,1.00
2022-09-16T10:51:24.702Z,0.90
2022-09-16T10:53:55.789Z,1.02
2022-09-16T10:56:29.280Z,1.25
2022-09-16T10:59:04.889Z,1.30
2022-09-16T11:01:45.427Z,1.60
2022-09-16T11:04:45.936Z,1.33
2022-09-16T11:07:28.292Z,1.38
2022-09-16T11:10:01.693Z,1.17
2022-09-16T11:12:52.639Z,1.52
2022-09-16T11:15:33.097Z,1.63
2022-09-16T11:18:16.613Z,1.60
2022-09-16T11:21:12.107Z,1.42
2022-09-16T11:23:57.101Z,1.63
2022-09-16T11:26:31.602Z,1.50
2022-09-16T11:29:15.140Z,1.58
2022-09-16T11:31:51.514Z,1.70
2022-09-16T11:34:31.070Z,1.60
2022-09-16T11:37:11.004Z,2.00
2022-09-16T11:39:55.437Z,1.80
2022-09-16T11:42:29.585Z,1.48
2022-09-16T11:45:09.567Z,0.90
2022-09-16T11:47:57.507Z,1.00
2022-09-16T11:50:41.806Z,0.88
2022-09-16T11:53:26.669Z,0.85
2022-09-16T11:56:02.554Z,1.35
2022-09-16T11:58:37.113Z,0.55
2022-09-16T12:01:14.268Z,0.80
2022-09-16T12:03:48.347Z,0.60
2022-09-16T12:06:19.626Z,0.68
2022-09-16T12:08:55.062Z,0.68
2022-09-16T12:11:32.778Z,0.77
2022-09-16T12:14:09.846Z,1.10
2022-09-16T12:16:46.019Z,0.70
2022-09-16T12:19:20.123Z,0.82
2022-09-16T12:21:57.726Z,1.67
2022-09-16T12:24:33.979Z,1.08
2022-09-16T12:27:07.424Z,0.85
2022-09-16T12:29:43.275Z,0.90
2022-09-16T12:32:21.921Z,0.75
2022-09-16T12:34:55.402Z,0.60
2022-09-16T12:37:34.713Z,0.70
2022-09-16T12:40:04.412Z,0.90
2022-09-16T12:43:02.055Z,0.65
2022-09-16T12:45:58.635Z,0.80
2022-09-16T12:48:56.492Z,0.38
2022-09-16T12:51:54.552Z,0.70
2022-09-16T12:55:04.377Z,0.70
2022-09-16T12:57:46.195Z,0.60
2022-09-16T13:00:20.067Z,0.60
2022-09-16T13:02:51.088Z,0.60
2022-09-16T13:05:26.300Z,0.60
2022-09-16T13:07:58.992Z,0.55
2022-09-16T13:10:53.883Z,0.43
2022-09-16T13:13:30.587Z,0.73
2022-09-16T13:16:00.976Z,0.70
2022-09-16T13:18:41.006Z,0.85
2022-09-16T13:21:22.388Z,1.13
2022-09-16T13:23:55.283Z,0.63
2022-09-16T13:26:23.138Z,1.23
2022-09-16T13:28:50.943Z,0.95
2022-09-16T13:31:21.824Z,1.10
2022-09-16T13:34:03.070Z,1.00
2022-09-16T13:36:34.469Z,0.60
2022-09-16T13:39:04.748Z,0.77
2022-09-16T13:41:38.744Z,0.70
2022-09-16T13:44:28.148Z,0.50
2022-09-16T13:46:55.922Z,0.63
2022-09-16T13:49:25.861Z,0.70
2022-09-16T13:51:55.344Z,0.52
2022-09-16T13:54:28.463Z,0.82
2022-09-16T13:57:20.113Z,0.70
2022-09-16T14:00:11.509Z,0.60
2022-09-16T14:03:07.273Z,0.80
2022-09-16T14:05:52.651Z,1.08
2022-09-16T14:08:29.023Z,0.73
2022-09-16T14:11:02.469Z,0.60
2022-09-16T14:13:39.318Z,0.70
2022-09-16T14:16:15.436Z,1.02
2022-09-16T14:18:48.302Z,0.75
2022-09-16T14:21:21.202Z,0.70
2022-09-16T14:23:50.762Z,1.00
2022-09-16T14:26:20.532Z,1.13
2022-09-16T14:28:48.864Z,1.00
2022-09-16T14:31:19.782Z,0.68
2022-09-16T14:33:56.439Z,1.13
2022-09-16T14:36:26.794Z,0.80
2022-09-16T14:38:59.968Z,0.60
2022-09-16T14:41:31.884Z,1.08
2022-09-16T14:44:08.124Z,0.60
2022-09-16T14:46:42.006Z,0.50
2022-09-16T14:49:11.820Z,0.82
2022-09-16T14:51:43.751Z,0.52
2022-09-16T14:54:18.628Z,0.43
2022-09-16T14:56:57.009Z,0.60
2022-09-16T14:59:27.709Z,0.55
2022-09-16T15:01:58.226Z,1.92
2022-09-16T15:04:30.951Z,0.60
2022-09-16T15:07:11.749Z,0.50
2022-09-16T15:09:46.159Z,0.38
2022-09-16T15:12:24.679Z,0.50
2022-09-16T15:14:52.675Z,0.57
2022-09-16T15:17:23.380Z,0.60
2022-09-16T15:19:56.374Z,0.50
2022-09-16T15:22:24.957Z,0.52
2022-09-16T15:24:56.745Z,0.57
2022-09-16T15:27:26.967Z,0.50
2022-09-16T15:29:59.285Z,0.60
2022-09-16T15:32:31.632Z,0.57
2022-09-16T15:35:16.772Z,0.50
2022-09-16T15:37:44.825Z,0.55
2022-09-16T15:40:23.957Z,0.50
2022-09-16T15:43:11.120Z,0.32
2022-09-16T15:45:39.766Z,0.52
2022-09-16T15:48:13.769Z,0.35
2022-09-16T15:50:47.790Z,0.40
2022-09-16T15:53:20.385Z,0.70
2022-09-16T15:55:58.818Z,0.55
2022-09-16T15:58:39.455Z,0.32
2022-09-16T16:01:14.540Z,0.70
2022-09-16T16:03:57.302Z,0.60
2022-09-16T16:06:50.444Z,0.60
2022-09-16T16:09:42.831Z,0.52
2022-09-16T16:12:16.122Z,0.40
2022-09-16T16:14:46.496Z,0.55
2022-09-16T16:17:17.246Z,0.70
2022-09-16T16:19:46.781Z,0.60
2022-09-16T16:22:15.910Z,0.75
2022-09-16T16:24:44.038Z,0.70
2022-09-16T16:27:13.421Z,0.63
2022-09-16T16:29:41.206Z,0.50
2022-09-16T16:32:10.202Z,0.50
2022-09-16T16:34:40.940Z,0.40
2022-09-16T16:37:19.174Z,0.90
2022-09-16T16:39:56.265Z,0.70
2022-09-16T16:42:25.722Z,0.70
2022-09-16T16:44:53.582Z,0.35
2022-09-16T16:47:21.351Z,0.30
2022-09-16T16:49:51.563Z,0.73
2022-09-16T16:52:19.572Z,0.60
2022-09-16T16:54:47.639Z,0.70
2022-09-16T16:57:15.479Z,0.38
2022-09-16T16:59:44.753Z,0.50
2022-09-16T17:02:14.921Z,0.60
2022-09-16T17:04:42.867Z,0.68
2022-09-16T17:07:27.621Z,0.77
2022-09-16T17:09:56.836Z,0.50
2022-09-16T17:12:24.711Z,0.60
2022-09-16T17:14:53.895Z,0.60
2022-09-16T17:17:21.678Z,0.50
2022-09-16T17:19:49.445Z,0.77
2022-09-16T17:22:17.260Z,0.43
2022-09-16T17:24:45.170Z,0.60
2022-09-16T17:27:14.487Z,0.63
2022-09-16T17:29:42.286Z,0.65
2022-09-16T17:32:11.523Z,0.50
2022-09-16T17:34:39.306Z,0.65
2022-09-16T17:37:08.392Z,1.00
2022-09-16T17:39:36.366Z,0.77
2022-09-16T17:42:04.374Z,0.63
2022-09-16T17:44:32.323Z,1.20
2022-09-16T17:47:00.181Z,2.38
2022-09-16T17:49:29.393Z,3.00
2022-09-16T17:51:57.602Z,3.33
2022-09-16T17:54:25.542Z,3.88
2022-09-16T17:56:53.321Z,2.50
2022-09-16T17:59:21.307Z,2.80
2022-09-16T18:01:49.223Z,2.90
2022-09-16T18:04:17.076Z,3.10
2022-09-16T18:06:47.731Z,2.17
2022-09-16T18:09:17.139Z,1.42
2022-09-16T18:11:45.844Z,1.20
2022-09-16T18:14:14.482Z,1.38
2022-09-16T18:16:43.134Z,1.08
2022-09-16T18:19:10.958Z,1.20
2022-09-16T18:21:38.806Z,0.82
2022-09-16T18:24:11.016Z,1.00
2022-09-16T18:26:39.069Z,1.05
2022-09-16T18:29:11.485Z,0.80
2022-09-16T18:31:40.571Z,0.95
2022-09-16T18:34:08.646Z,0.80
2022-09-16T18:36:37.705Z,1.00
2022-09-16T18:39:08.072Z,1.02
2022-09-16T18:41:38.136Z,1.08
2022-09-16T18:44:08.316Z,1.13
2022-09-16T18:46:38.318Z,0.70
2022-09-16T18:49:07.159Z,1.10
2022-09-16T18:51:36.962Z,1.00
2022-09-16T18:54:08.105Z,1.05
2022-09-16T18:56:37.705Z,0.85
2022-09-16T18:59:23.945Z,1.02
2022-09-16T19:01:53.592Z,0.90
2022-09-16T19:04:23.997Z,0.80
2022-09-16T19:06:59.233Z,0.70
2022-09-16T19:09:28.495Z,1.13
2022-09-16T19:11:56.446Z,1.08
2022-09-16T19:14:27.324Z,0.70
2022-09-16T19:16:55.535Z,1.23
2022-09-16T19:19:23.442Z,0.90
2022-09-16T19:21:51.428Z,0.90
2022-09-16T19:24:21.911Z,0.80
2022-09-16T19:26:53.025Z,1.17
2022-09-16T19:29:21.877Z,0.80
2022-09-16T19:31:51.681Z,0.80
2022-09-16T19:34:20.261Z,0.73
2022-09-16T19:36:48.328Z,0.80
2022-09-16T19:39:16.367Z,0.82
2022-09-16T19:41:45.093Z,0.80
2022-09-16T19:44:16.423Z,0.70
2022-09-16T19:46:46.785Z,0.68
2022-09-16T19:49:17.508Z,0.90
2022-09-16T19:51:45.342Z,0.80
2022-09-16T19:54:13.568Z,1.00
2022-09-16T19:56:41.531Z,1.13
2022-09-16T19:59:10.231Z,0.70
2022-09-16T20:01:39.846Z,1.13
2022-09-16T20:04:09.545Z,1.67
2022-09-16T20:06:39.832Z,1.20
2022-09-16T20:09:11.417Z,1.27
2022-09-16T20:11:40.756Z,1.60
2022-09-16T20:14:13.498Z,1.10
2022-09-16T20:16:43.381Z,1.17
2022-09-16T20:19:13.068Z,1.02
2022-09-16T20:21:41.419Z,0.68
2022-09-16T20:24:14.570Z,0.82
2022-09-16T20:26:42.448Z,1.20
2022-09-16T20:29:10.337Z,0.90
2022-09-16T20:31:38.697Z,0.95
2022-09-16T20:34:07.915Z,0.70
2022-09-16T20:36:38.434Z,0.70
2022-09-16T20:39:07.184Z,1.25
2022-09-16T20:41:36.538Z,2.10
2022-09-16T20:44:05.607Z,0.85
2022-09-16T20:46:35.048Z,0.90
2022-09-16T20:49:05.090Z,0.80
2022-09-16T20:51:35.371Z,0.90
2022-09-16T20:54:07.797Z,0.98
2022-09-16T20:56:38.785Z,0.90
2022-09-16T20:59:08.137Z,1.08
2022-09-16T21:01:37.243Z,1.95
2022-09-16T21:04:06.654Z,1.98
2022-09-16T21:06:36.899Z,0.80
2022-09-16T21:09:07.110Z,1.33
2022-09-16T21:11:35.374Z,1.02
2022-09-16T21:14:07.470Z,1.80
2022-09-16T21:16:36.626Z,0.93
2022-09-16T21:19:09.036Z,1.10
2022-09-16T21:21:40.446Z,1.35
2022-09-16T21:24:09.712Z,2.30
2022-09-16T21:26:40.162Z,1.58
2022-09-16T21:29:09.855Z,1.55
2022-09-16T21:31:38.974Z,1.15
2022-09-16T21:34:08.323Z,1.17
2022-09-16T21:36:37.620Z,1.23
2022-09-16T21:39:07.490Z,1.48
2022-09-16T21:41:35.579Z,1.42
2022-09-16T21:44:04.070Z,1.98
2022-09-16T21:46:33.600Z,1.20
2022-09-16T21:49:02.956Z,2.08
2022-09-16T21:51:35.030Z,1.42
2022-09-16T21:54:03.323Z,1.40
2022-09-16T21:56:33.068Z,1.63
2022-09-16T21:59:01.149Z,1.25
2022-09-16T22:01:31.543Z,1.55
2022-09-16T22:04:01.647Z,1.30
2022-09-16T22:06:30.230Z,1.17
2022-09-16T22:09:00.869Z,1.40
2022-09-16T22:11:31.077Z,1.38
2022-09-16T22:14:00.798Z,1.42
2022-09-16T22:16:30.608Z,1.92
2022-09-16T22:19:00.620Z,1.33
2022-09-16T22:21:30.432Z,1.98
2022-09-16T22:23:59.463Z,1.85
2022-09-16T22:26:28.138Z,1.75
2022-09-16T22:28:56.207Z,2.95
2022-09-16T22:31:27.071Z,1.33
2022-09-16T22:33:56.838Z,1.23
2022-09-16T22:36:26.429Z,1.73
2022-09-16T22:38:56.049Z,1.40
2022-09-16T22:41:25.990Z,1.90
2022-09-16T22:43:55.019Z,1.85
2022-09-16T22:46:26.666Z,1.77
2022-09-16T22:48:56.792Z,3.00
2022-09-16T22:51:25.534Z,1.67
2022-09-16T22:53:54.130Z,1.48
2022-09-16T22:56:24.847Z,2.42
2022-09-16T22:58:54.459Z,1.75
2022-09-16T23:01:26.299Z,1.40
2022-09-16T23:03:56.613Z,1.50
2022-09-16T23:06:25.281Z,2.33
2022-09-16T23:08:54.424Z,1.50
2022-09-16T23:11:24.452Z,1.67
2022-09-16T23:13:54.125Z,1.52
2022-09-16T23:16:24.242Z,1.77
2022-09-16T23:18:55.671Z,2.33
2022-09-16T23:21:24.751Z,1.77
2022-09-16T23:23:53.802Z,2.03
2022-09-16T23:26:23.825Z,3.05
2022-09-16T23:28:53.324Z,2.50
2022-09-16T23:31:24.388Z,2.33
2022-09-16T23:33:54.592Z,2.35
2022-09-16T23:36:23.514Z,2.25
2022-09-16T23:38:51.451Z,3.08
2022-09-16T23:41:21.529Z,3.45
2022-09-16T23:43:50.591Z,2.55
2022-09-16T23:46:20.882Z,2.38
2022-09-16T23:48:51.020Z,3.45
2022-09-16T23:51:25.965Z,3.03
2022-09-16T23:53:55.888Z,3.58
2022-09-16T23:56:23.850Z,3.15
2022-09-16T23:58:52.123Z,2.97
